Time;durP1;ratioP1;P1;durP2;ratioP2;P2;SDS_P1;SDS_P2;PMS_P1;PMS_P2;Temp;Humidity;BMP_temperature;BMP_pressure;BME280_temperature;BME280_humidity;BME280_pressure;Samples;Min_cycle;Max_cycle;Signal;HPM_P1;HPM_P2
2021/10/19 00:00:41;;;;;;;13.73;12.33;;;10.10;94.10;;;;;;5085769;28;20193;-39
2021/10/19 00:03:08;;;;;;;12.10;10.90;;;10.10;94.10;;;;;;5087860;28;20276;-39
2021/10/19 00:05:34;;;;;;;13.33;11.97;;;10.10;94.10;;;;;;5084870;28;20184;-40
2021/10/19 00:08:00;;;;;;;12.97;11.70;;;10.10;94.20;;;;;;5087654;28;20430;-38
2021/10/19 00:10:27;;;;;;;12.77;11.40;;;10.10;94.20;;;;;;5085895;28;20479;-39
2021/10/19 00:12:53;;;;;;;12.70;11.50;;;10.10;94.30;;;;;;5087070;28;20430;-38
2021/10/19 00:15:19;;;;;;;11.53;10.43;;;10.10;94.20;;;;;;5087241;28;20428;-39
2021/10/19 00:17:45;;;;;;;11.37;10.30;;;10.00;94.20;;;;;;5085450;28;20561;-39
2021/10/19 00:20:12;;;;;;;11.77;10.57;;;10.00;94.20;;;;;;5085517;28;20460;-39
2021/10/19 00:22:38;;;;;;;12.80;11.50;;;10.00;94.10;;;;;;5086629;28;20422;-39
2021/10/19 00:25:05;;;;;;;11.73;10.73;;;10.00;94.10;;;;;;5085212;28;20431;-39
2021/10/19 00:27:34;;;;;;;11.37;10.23;;;9.90;94.70;;;;;;5087242;28;20426;-37
2021/10/19 00:30:00;;;;;;;12.60;11.30;;;9.90;94.80;;;;;;5086586;28;20506;-38
2021/10/19 00:32:27;;;;;;;11.17;10.10;;;9.90;94.70;;;;;;5084856;28;20439;-40
2021/10/19 00:34:53;;;;;;;10.47;9.50;;;9.80;94.70;;;;;;5084949;28;20719;-39
2021/10/19 00:37:19;;;;;;;6.80;5.70;;;9.90;95.30;;;;;;5085754;28;20173;-39
2021/10/19 00:39:44;;;;;;;6.20;5.60;;;10.20;98.60;;;;;;5086787;28;20183;-40
2021/10/19 00:42:10;;;;;;;8.30;5.30;;;10.80;99.90;;;;;;5085998;28;20481;-38
2021/10/19 00:44:36;;;;;;;6.77;6.00;;;11.40;99.90;;;;;;5086459;28;20189;-39
2021/10/19 00:47:01;;;;;;;6.93;6.23;;;12.00;99.90;;;;;;5087142;28;20181;-37
2021/10/19 00:49:27;;;;;;;8.90;8.07;;;12.50;99.90;;;;;;5084236;28;20304;-38
2021/10/19 00:51:53;;;;;;;9.33;8.37;;;12.70;99.90;;;;;;5085220;28;20213;-38
2021/10/19 00:54:22;;;;;;;9.53;8.53;;;12.60;97.80;;;;;;5085854;28;20179;-39
2021/10/19 00:56:47;;;;;;;9.00;8.17;;;12.40;96.10;;;;;;5085302;28;20435;-41
2021/10/19 00:59:14;;;;;;;10.80;8.53;;;12.20;95.20;;;;;;5085221;28;20419;-39
2021/10/19 01:01:40;;;;;;;9.40;8.50;;;12.00;94.70;;;;;;5086721;28;20471;-40
2021/10/19 01:04:05;;;;;;;10.40;9.10;;;11.80;94.60;;;;;;5087731;28;20427;-39
2021/10/19 01:06:31;;;;;;;10.13;9.23;;;11.60;94.60;;;;;;5085490;28;20501;-39
2021/10/19 01:08:56;;;;;;;11.30;9.97;;;11.40;94.50;;;;;;5068182;28;20204;-39
2021/10/19 01:11:22;;;;;;;9.73;8.83;;;11.30;94.50;;;;;;5087335;28;20185;-39
2021/10/19 01:13:48;;;;;;;10.50;9.47;;;11.20;94.50;;;;;;5085063;28;20174;-39
2021/10/19 01:16:13;;;;;;;10.07;9.07;;;11.10;94.50;;;;;;5084620;28;20569;-41
2021/10/19 01:18:40;;;;;;;10.33;9.33;;;11.00;94.60;;;;;;5086227;28;20176;-41
2021/10/19 01:21:07;;;;;;;11.20;10.20;;;10.90;94.60;;;;;;5086616;28;20186;-39
2021/10/19 01:23:34;;;;;;;11.20;10.10;;;10.90;94.70;;;;;;5085658;28;20796;-40
2021/10/19 01:26:03;;;;;;;12.00;10.80;;;10.80;94.70;;;;;;5085659;28;20434;-39
2021/10/19 01:28:30;;;;;;;11.87;10.47;;;10.80;94.80;;;;;;5086849;28;20469;-41
2021/10/19 01:30:58;;;;;;;13.57;11.40;;;10.80;94.90;;;;;;5084205;28;20817;-39
2021/10/19 01:33:25;;;;;;;11.57;10.20;;;10.70;94.90;;;;;;5089153;28;20423;-39
2021/10/19 01:35:50;;;;;;;10.30;9.30;;;10.70;94.90;;;;;;5088588;28;20957;-39
2021/10/19 01:38:19;;;;;;;11.60;9.93;;;10.70;95.00;;;;;;5090352;28;20419;-41
2021/10/19 01:40:46;;;;;;;11.10;9.90;;;10.70;95.00;;;;;;5090571;28;20578;-40
2021/10/19 01:43:13;;;;;;;11.33;9.90;;;10.70;95.10;;;;;;5090241;28;20423;-38
2021/10/19 01:45:40;;;;;;;10.70;9.70;;;10.80;95.10;;;;;;5089128;28;20420;-40
2021/10/19 01:48:06;;;;;;;9.90;9.00;;;10.80;95.10;;;;;;5089081;28;20434;-40
2021/10/19 01:50:32;;;;;;;10.90;9.50;;;10.80;95.20;;;;;;5090350;28;20564;-38
2021/10/19 01:52:58;;;;;;;10.57;9.57;;;10.80;95.20;;;;;;5089091;28;20786;-41
2021/10/19 01:55:24;;;;;;;10.17;9.27;;;10.80;95.20;;;;;;5088717;28;20169;-41
2021/10/19 01:57:49;;;;;;;9.27;8.40;;;10.80;95.20;;;;;;5090479;28;20606;-39
2021/10/19 02:00:15;;;;;;;9.40;8.50;;;10.80;95.10;;;;;;5088754;28;20186;-40
2021/10/19 02:02:41;;;;;;;9.40;8.50;;;10.90;95.20;;;;;;5088944;28;20175;-40
2021/10/19 02:05:08;;;;;;;10.20;9.20;;;10.90;95.20;;;;;;5090176;28;20470;-40
2021/10/19 02:07:34;;;;;;;12.17;9.90;;;10.90;95.20;;;;;;5088692;28;20416;-42
2021/10/19 02:10:00;;;;;;;10.00;9.00;;;10.90;95.30;;;;;;5088852;28;20466;-42
2021/10/19 02:12:26;;;;;;;10.90;9.80;;;10.90;95.30;;;;;;5089916;28;20169;-41
2021/10/19 02:14:52;;;;;;;10.70;9.63;;;10.90;95.40;;;;;;5088029;28;20173;-40
2021/10/19 02:17:18;;;;;;;11.00;9.50;;;10.90;95.40;;;;;;5088007;28;20417;-40
2021/10/19 02:19:43;;;;;;;12.37;10.57;;;10.90;95.40;;;;;;5089572;28;20184;-39
2021/10/19 02:22:10;;;;;;;11.30;10.20;;;10.90;95.40;;;;;;5087823;28;20178;-40
2021/10/19 02:24:36;;;;;;;9.90;8.90;;;10.90;95.50;;;;;;5094881;28;20169;-39
2021/10/19 02:27:02;;;;;;;11.23;10.17;;;10.90;95.50;;;;;;5086747;28;20494;-41
2021/10/19 02:29:28;;;;;;;9.50;8.60;;;10.90;95.60;;;;;;5089737;28;20570;-38
2021/10/19 02:31:53;;;;;;;8.97;8.07;;;10.90;95.60;;;;;;5089681;28;20541;-41
2021/10/19 02:34:21;;;;;;;9.70;8.70;;;10.90;95.60;;;;;;5088468;28;20177;-40
2021/10/19 02:36:46;;;;;;;9.07;8.23;;;10.90;95.70;;;;;;5087082;28;20582;-41
2021/10/19 02:39:12;;;;;;;8.90;7.80;;;10.90;95.70;;;;;;5088746;28;20429;-39
2021/10/19 02:41:38;;;;;;;8.87;6.90;;;10.90;95.70;;;;;;5088987;28;20184;-42
2021/10/19 02:44:04;;;;;;;9.83;7.90;;;10.90;95.60;;;;;;5087210;28;20273;-42
2021/10/19 02:46:32;;;;;;;7.60;6.90;;;10.90;96.00;;;;;;5088902;28;20492;-39
2021/10/19 02:48:59;;;;;;;8.20;7.40;;;10.90;95.60;;;;;;5089730;28;20987;-40
2021/10/19 02:51:25;;;;;;;8.37;7.67;;;10.90;95.60;;;;;;5089104;28;20418;-42
2021/10/19 02:53:50;;;;;;;9.00;8.10;;;11.00;95.60;;;;;;5078967;28;20415;-39
2021/10/19 02:56:16;;;;;;;8.83;7.67;;;11.00;95.60;;;;;;5078328;28;20530;-41
2021/10/19 02:58:42;;;;;;;9.30;8.50;;;11.00;95.60;;;;;;5077905;28;20602;-38
2021/10/19 03:01:07;;;;;;;8.00;7.20;;;11.00;95.60;;;;;;5078227;28;20567;-40
2021/10/19 03:03:33;;;;;;;8.87;8.00;;;11.00;95.60;;;;;;5078443;28;20177;-38
2021/10/19 03:05:59;;;;;;;8.10;7.40;;;11.00;95.50;;;;;;5078647;28;20193;-39
2021/10/19 03:08:24;;;;;;;7.43;6.73;;;11.00;95.50;;;;;;5077909;28;20181;-40
2021/10/19 03:10:50;;;;;;;7.57;6.40;;;11.00;95.40;;;;;;5077904;28;20291;-40
2021/10/19 03:13:16;;;;;;;6.87;6.20;;;11.00;95.40;;;;;;5077841;28;20467;-40
2021/10/19 03:15:42;;;;;;;6.60;5.90;;;11.10;95.30;;;;;;5078111;28;20264;-39
2021/10/19 03:18:08;;;;;;;7.17;6.50;;;11.10;95.20;;;;;;5078362;28;20451;-40
2021/10/19 03:20:34;;;;;;;8.23;7.40;;;11.10;95.20;;;;;;5077828;28;20435;-38
2021/10/19 03:23:00;;;;;;;7.67;6.97;;;11.10;95.10;;;;;;5077873;28;20818;-42
2021/10/19 03:25:25;;;;;;;8.00;7.30;;;11.10;95.00;;;;;;5077579;28;20177;-39
2021/10/19 03:27:51;;;;;;;8.00;7.20;;;11.10;94.80;;;;;;5077635;28;20424;-42
2021/10/19 03:30:17;;;;;;;7.33;6.63;;;11.20;94.80;;;;;;5077597;28;20259;-40
2021/10/19 03:32:43;;;;;;;6.77;6.10;;;11.20;94.60;;;;;;5077833;28;20200;-39
2021/10/19 03:35:09;;;;;;;7.43;6.73;;;11.20;94.50;;;;;;5077246;28;20247;-41
2021/10/19 03:37:34;;;;;;;6.70;6.10;;;11.30;94.50;;;;;;5077058;28;20629;-41
2021/10/19 03:40:00;;;;;;;7.30;6.60;;;11.30;94.40;;;;;;5076489;28;20530;-40
2021/10/19 03:42:25;;;;;;;7.40;6.67;;;11.30;94.30;;;;;;5076016;28;20284;-39
2021/10/19 03:44:51;;;;;;;8.07;7.13;;;11.30;94.20;;;;;;5076399;28;20188;-40
2021/10/19 03:47:17;;;;;;;8.33;7.53;;;11.40;94.20;;;;;;5076801;28;20179;-43
2021/10/19 03:49:43;;;;;;;8.63;7.60;;;11.40;94.20;;;;;;5076821;28;20947;-39
2021/10/19 03:52:09;;;;;;;8.00;7.30;;;11.40;94.20;;;;;;5077333;28;20268;-39
2021/10/19 03:54:35;;;;;;;9.40;8.53;;;11.40;94.30;;;;;;5075923;28;20559;-39
2021/10/19 03:57:01;;;;;;;7.97;7.17;;;11.40;94.20;;;;;;5076912;28;20433;-40
2021/10/19 03:59:28;;;;;;;7.60;6.90;;;11.50;94.20;;;;;;5077054;28;20412;-43
2021/10/19 04:01:54;;;;;;;8.73;7.93;;;11.50;94.10;;;;;;5076984;28;20177;-41
2021/10/19 04:04:20;;;;;;;7.93;7.13;;;11.50;94.10;;;;;;5077356;28;20523;-43
2021/10/19 04:06:46;;;;;;;7.93;7.23;;;11.50;94.00;;;;;;5075913;28;20181;-42
2021/10/19 04:09:12;;;;;;;7.73;7.03;;;11.50;94.00;;;;;;5075549;28;20262;-43
2021/10/19 04:11:37;;;;;;;7.60;6.83;;;11.60;94.00;;;;;;5075418;28;20240;-43
2021/10/19 04:14:03;;;;;;;8.97;7.73;;;11.60;93.90;;;;;;5075713;28;20208;-42
2021/10/19 04:16:28;;;;;;;8.13;7.30;;;11.60;93.80;;;;;;5075874;28;20174;-41
2021/10/19 04:18:54;;;;;;;6.97;6.33;;;11.60;93.80;;;;;;5074702;28;20176;-42
2021/10/19 04:21:20;;;;;;;7.30;6.60;;;11.70;93.90;;;;;;5075646;28;20176;-42
2021/10/19 04:23:47;;;;;;;7.30;6.70;;;11.70;93.80;;;;;;5075816;28;20208;-40
2021/10/19 04:26:13;;;;;;;7.30;6.60;;;11.70;93.80;;;;;;5074313;28;20178;-41
2021/10/19 04:28:40;;;;;;;8.00;7.20;;;11.70;93.80;;;;;;5074951;28;20474;-41
2021/10/19 04:31:06;;;;;;;9.60;7.37;;;11.70;93.80;;;;;;5074885;28;20956;-42
2021/10/19 04:33:32;;;;;;;7.93;7.13;;;11.70;93.80;;;;;;5075420;28;20501;-42
2021/10/19 04:35:58;;;;;;;7.00;6.30;;;11.70;93.80;;;;;;5075312;28;20424;-43
2021/10/19 04:38:24;;;;;;;7.87;7.10;;;11.70;93.80;;;;;;5076314;28;20180;-40
2021/10/19 04:40:49;;;;;;;7.40;6.70;;;11.70;93.80;;;;;;5075303;28;20419;-41
2021/10/19 04:43:15;;;;;;;7.77;6.97;;;11.70;93.80;;;;;;5075386;28;20174;-42
2021/10/19 04:45:41;;;;;;;7.13;6.40;;;11.70;93.80;;;;;;5075834;28;20179;-42
2021/10/19 04:48:07;;;;;;;6.73;6.13;;;11.70;93.90;;;;;;5075297;28;20172;-42
2021/10/19 04:50:34;;;;;;;7.63;6.83;;;11.70;93.90;;;;;;5076214;28;20516;-42
2021/10/19 04:53:01;;;;;;;8.93;7.80;;;11.70;93.90;;;;;;5076019;28;20178;-41
2021/10/19 04:55:27;;;;;;;8.27;7.47;;;11.70;93.90;;;;;;5075366;28;20451;-41
2021/10/19 04:57:53;;;;;;;8.00;7.17;;;11.70;93.90;;;;;;5074954;28;20435;-42
2021/10/19 05:00:18;;;;;;;7.80;7.00;;;11.80;93.90;;;;;;5075237;28;20459;-43
2021/10/19 05:02:48;;;;;;;7.93;7.10;;;11.80;93.90;;;;;;5074770;28;20614;-41
2021/10/19 05:05:15;;;;;;;8.10;7.33;;;11.80;93.90;;;;;;5076410;28;20273;-45
2021/10/19 05:07:41;;;;;;;10.37;9.37;;;11.80;93.90;;;;;;5079582;28;20415;-40
2021/10/19 05:10:07;;;;;;;9.50;8.70;;;11.80;93.90;;;;;;5080406;28;20895;-43
2021/10/19 05:12:32;;;;;;;10.53;9.43;;;11.90;94.00;;;;;;5080563;28;20276;-42
2021/10/19 05:14:58;;;;;;;10.47;9.43;;;11.90;94.00;;;;;;5083600;28;20448;-43
2021/10/19 05:17:24;;;;;;;12.73;10.47;;;11.90;94.00;;;;;;5090723;28;20197;-43
2021/10/19 05:19:50;;;;;;;10.70;9.70;;;11.90;94.00;;;;;;5093302;28;20427;-42
2021/10/19 05:22:16;;;;;;;11.50;10.30;;;11.90;94.00;;;;;;5091385;28;20591;-43
2021/10/19 05:24:42;;;;;;;11.17;10.07;;;12.00;94.00;;;;;;5068542;28;20279;-43
2021/10/19 05:27:07;;;;;;;11.40;10.17;;;12.00;94.00;;;;;;5086236;28;20761;-46
2021/10/19 05:29:33;;;;;;;11.60;10.37;;;12.00;94.10;;;;;;5089007;28;20228;-44
2021/10/19 05:32:00;;;;;;;11.10;10.00;;;12.00;94.20;;;;;;5089077;28;20192;-44
2021/10/19 05:34:26;;;;;;;11.40;10.30;;;12.00;94.30;;;;;;5082288;28;20185;-44
2021/10/19 05:36:52;;;;;;;11.70;10.60;;;12.00;94.40;;;;;;5078692;28;20431;-44
2021/10/19 05:39:18;;;;;;;14.20;9.60;;;12.00;94.60;;;;;;5078339;28;20198;-42
2021/10/19 05:41:44;;;;;;;10.73;9.70;;;12.00;94.70;;;;;;5078341;28;20754;-42
2021/10/19 05:44:11;;;;;;;10.33;9.30;;;12.00;94.80;;;;;;5077079;28;20423;-42
2021/10/19 05:46:36;;;;;;;10.67;9.40;;;12.00;95.00;;;;;;5079013;28;20875;-41
2021/10/19 05:49:02;;;;;;;10.87;9.60;;;12.00;95.10;;;;;;5078023;28;20416;-43
2021/10/19 05:51:28;;;;;;;11.37;10.37;;;12.00;95.20;;;;;;5078441;28;20256;-42
2021/10/19 05:53:53;;;;;;;10.90;9.80;;;12.00;95.40;;;;;;5078282;28;20252;-42
2021/10/19 05:56:19;;;;;;;11.60;9.87;;;12.00;95.50;;;;;;5078331;28;20178;-42
2021/10/19 05:58:44;;;;;;;13.53;10.70;;;12.00;95.60;;;;;;5078121;28;20173;-43
2021/10/19 06:01:13;;;;;;;11.20;10.20;;;12.00;95.80;;;;;;5079315;28;20185;-42
2021/10/19 06:03:39;;;;;;;10.80;9.73;;;12.00;95.80;;;;;;5077533;28;20190;-43
2021/10/19 06:06:10;;;;;;;14.27;11.03;;;12.00;95.60;;;;;;5078625;28;20424;-45
2021/10/19 06:08:36;;;;;;;11.03;9.93;;;12.00;95.60;;;;;;5077687;28;20186;-43
2021/10/19 06:11:02;;;;;;;10.23;9.23;;;12.10;95.60;;;;;;5077902;28;20470;-42
2021/10/19 06:13:27;;;;;;;10.90;9.87;;;12.10;95.50;;;;;;5079183;28;20270;-44
2021/10/19 06:15:54;;;;;;;10.13;9.13;;;12.10;95.30;;;;;;5079238;28;20181;-45
2021/10/19 06:18:20;;;;;;;10.27;9.27;;;12.10;95.20;;;;;;5078218;28;20268;-44
2021/10/19 06:20:49;;;;;;;10.40;9.40;;;12.10;95.10;;;;;;5078441;28;20530;-41
2021/10/19 06:23:19;;;;;;;10.03;9.03;;;12.10;95.00;;;;;;5078288;28;20458;-43
2021/10/19 06:25:46;;;;;;;10.60;9.50;;;12.10;94.90;;;;;;5077664;28;20437;-43
2021/10/19 06:28:11;;;;;;;9.50;8.50;;;12.20;94.90;;;;;;5078176;28;20509;-42
2021/10/19 06:30:37;;;;;;;9.67;8.77;;;12.20;94.80;;;;;;5077529;28;20543;-42
2021/10/19 06:33:03;;;;;;;9.90;8.97;;;12.20;94.80;;;;;;5078218;28;20186;-47
2021/10/19 06:35:28;;;;;;;9.20;8.30;;;12.20;94.60;;;;;;5076078;28;20174;-44
2021/10/19 06:37:54;;;;;;;8.60;7.83;;;12.30;94.60;;;;;;5081161;28;20566;-43
2021/10/19 06:40:20;;;;;;;8.83;7.93;;;12.30;94.40;;;;;;5096707;28;20224;-42
2021/10/19 06:42:46;;;;;;;9.60;8.70;;;12.30;94.40;;;;;;5097039;28;20177;-42
2021/10/19 06:45:12;;;;;;;8.40;7.50;;;12.40;94.40;;;;;;5095672;28;20830;-45
2021/10/19 06:47:38;;;;;;;8.70;7.90;;;12.40;94.40;;;;;;5095712;28;20169;-46
2021/10/19 06:50:05;;;;;;;7.93;7.07;;;12.40;94.30;;;;;;5095309;28;20527;-44
2021/10/19 06:52:32;;;;;;;7.60;6.80;;;12.40;94.20;;;;;;5096935;28;20422;-43
2021/10/19 06:54:57;;;;;;;7.60;6.90;;;12.50;94.20;;;;;;5097071;28;20414;-42
2021/10/19 06:57:23;;;;;;;6.07;5.47;;;12.50;94.00;;;;;;5098026;28;20411;-43
2021/10/19 06:59:49;;;;;;;5.50;4.43;;;12.60;94.60;;;;;;5096814;28;20211;-46
2021/10/19 07:02:15;;;;;;;7.70;5.03;;;12.80;97.40;;;;;;5096672;28;20441;-42
2021/10/19 07:04:40;;;;;;;5.20;4.80;;;13.20;98.40;;;;;;5097752;28;20187;-41
2021/10/19 07:07:06;;;;;;;4.23;3.83;;;13.50;98.30;;;;;;5098008;28;20578;-46
2021/10/19 07:09:32;;;;;;;4.57;4.17;;;13.80;98.20;;;;;;5098160;28;20298;-42
2021/10/19 07:11:58;;;;;;;6.40;4.67;;;14.00;98.00;;;;;;5096511;28;20978;-44
2021/10/19 07:14:24;;;;;;;4.43;3.90;;;14.30;97.40;;;;;;5096474;28;20181;-42
2021/10/19 07:16:51;;;;;;;4.63;3.43;;;14.50;96.80;;;;;;5095976;28;20837;-44
2021/10/19 07:19:16;;;;;;;5.10;4.33;;;14.70;96.40;;;;;;5095878;28;21019;-42
2021/10/19 07:21:43;;;;;;;4.47;4.00;;;14.90;96.10;;;;;;5097138;28;20472;-42
2021/10/19 07:24:09;;;;;;;5.07;4.57;;;15.10;95.80;;;;;;5096711;28;20278;-42
2021/10/19 07:26:35;;;;;;;4.60;3.70;;;15.20;95.30;;;;;;5096296;28;20928;-43
2021/10/19 07:29:01;;;;;;;4.10;3.70;;;15.30;94.90;;;;;;5097413;28;20240;-41
2021/10/19 07:31:27;;;;;;;4.73;4.13;;;15.50;94.40;;;;;;5096517;28;20421;-42
2021/10/19 07:33:52;;;;;;;4.03;3.60;;;15.60;94.00;;;;;;5096496;28;20183;-44
2021/10/19 07:36:18;;;;;;;4.00;3.60;;;15.60;93.70;;;;;;5097297;28;20180;-44
2021/10/19 07:38:45;;;;;;;4.03;3.40;;;15.80;93.70;;;;;;5097722;28;20169;-43
2021/10/19 07:41:10;;;;;;;4.23;3.43;;;15.80;93.50;;;;;;5097591;28;20280;-44
2021/10/19 07:43:36;;;;;;;3.83;3.50;;;15.90;93.30;;;;;;5096610;28;21207;-43
2021/10/19 07:46:02;;;;;;;4.80;4.00;;;16.00;93.20;;;;;;5095891;28;20525;-42
2021/10/19 07:48:28;;;;;;;5.30;3.87;;;16.10;93.00;;;;;;5096125;28;20838;-42
2021/10/19 07:50:53;;;;;;;3.93;3.50;;;16.20;92.90;;;;;;5095986;28;20595;-43
2021/10/19 07:53:19;;;;;;;3.90;3.60;;;16.30;92.80;;;;;;5095570;28;20237;-41
2021/10/19 07:55:45;;;;;;;4.93;4.53;;;16.30;92.70;;;;;;5095861;28;20177;-42
2021/10/19 07:58:10;;;;;;;4.13;3.73;;;16.40;92.60;;;;;;5096781;28;20187;-42
2021/10/19 08:00:36;;;;;;;3.70;3.40;;;16.40;92.40;;;;;;5096103;28;20181;-47
2021/10/19 08:03:03;;;;;;;5.10;4.13;;;16.50;92.30;;;;;;5095948;28;20201;-42
2021/10/19 08:05:29;;;;;;;4.67;3.90;;;16.50;91.90;;;;;;5096269;28;20184;-44
2021/10/19 08:08:10;;;;;;;4.87;4.47;;;16.40;90.90;;;;;;5095336;28;20419;-46
2021/10/19 08:10:37;;;;;;;5.00;4.60;;;16.20;90.20;;;;;;5094774;28;21128;-44
2021/10/19 08:13:03;;;;;;;6.20;5.10;;;16.00;90.00;;;;;;5095256;28;20474;-42
2021/10/19 08:15:28;;;;;;;4.30;3.90;;;15.90;90.00;;;;;;5077276;28;20473;-44
2021/10/19 08:17:54;;;;;;;4.50;4.10;;;15.70;90.00;;;;;;5094562;28;20270;-44
2021/10/19 08:20:20;;;;;;;4.67;4.27;;;15.60;90.00;;;;;;5094328;28;20177;-42
2021/10/19 08:22:45;;;;;;;4.63;3.93;;;15.50;90.00;;;;;;5096276;28;20180;-45
2021/10/19 08:25:11;;;;;;;4.83;4.43;;;15.40;90.00;;;;;;5096775;28;20234;-45
2021/10/19 08:27:39;;;;;;;4.80;4.40;;;15.40;90.00;;;;;;5096461;28;20473;-46
2021/10/19 08:30:07;;;;;;;6.03;5.00;;;15.30;90.00;;;;;;5096956;28;20250;-42
2021/10/19 08:32:33;;;;;;;5.30;4.57;;;15.20;90.00;;;;;;5095805;28;20424;-41
2021/10/19 08:34:59;;;;;;;6.80;5.40;;;15.20;90.00;;;;;;5096698;28;20423;-43
2021/10/19 08:37:25;;;;;;;5.27;4.40;;;15.20;89.70;;;;;;5096190;28;20576;-41
2021/10/19 08:39:51;;;;;;;4.67;4.17;;;15.20;89.30;;;;;;5096134;28;20237;-42
2021/10/19 08:42:17;;;;;;;5.50;4.70;;;15.30;89.00;;;;;;5095566;28;20704;-41
2021/10/19 08:44:46;;;;;;;4.70;4.30;;;15.30;88.60;;;;;;5095620;28;20448;-41
2021/10/19 08:47:13;;;;;;;5.63;4.80;;;15.20;88.40;;;;;;5096142;28;20446;-42
2021/10/19 08:49:39;;;;;;;5.00;4.50;;;15.30;88.40;;;;;;5095636;28;20473;-40
2021/10/19 08:52:05;;;;;;;5.37;4.80;;;15.20;88.10;;;;;;5095808;28;20412;-42
2021/10/19 08:54:31;;;;;;;5.03;4.53;;;15.20;87.90;;;;;;5093842;28;20501;-43
2021/10/19 08:56:56;;;;;;;5.57;4.97;;;15.10;87.60;;;;;;5095094;28;20180;-41
2021/10/19 08:59:23;;;;;;;5.13;4.73;;;15.10;87.60;;;;;;5096064;28;20177;-42
2021/10/19 09:01:53;;;;;;;6.80;5.20;;;15.00;87.60;;;;;;5095921;28;20177;-41
2021/10/19 09:04:19;;;;;;;5.53;5.03;;;15.00;87.60;;;;;;5095115;28;20411;-41
2021/10/19 09:06:45;;;;;;;5.27;4.77;;;14.90;87.60;;;;;;5091468;28;20503;-43
2021/10/19 09:09:24;;;;;;;6.90;5.40;;;14.90;87.70;;;;;;5088723;28;20185;-43
2021/10/19 09:11:51;;;;;;;5.60;5.10;;;14.90;87.90;;;;;;5073769;28;20725;-42
2021/10/19 09:14:19;;;;;;;6.00;5.40;;;14.90;88.20;;;;;;5073604;28;20484;-42
2021/10/19 09:16:50;;;;;;;5.87;5.27;;;14.90;88.40;;;;;;5073763;28;20420;-43
2021/10/19 09:19:17;;;;;;;5.77;5.20;;;14.90;88.70;;;;;;5074246;28;20504;-40
2021/10/19 09:21:52;;;;;;;6.57;5.87;;;14.90;89.00;;;;;;5074725;28;20993;-44
2021/10/19 09:24:19;;;;;;;6.30;5.30;;;15.00;89.20;;;;;;5074393;28;20452;-43
2021/10/19 09:27:10;;;;;;;5.40;4.90;;;15.00;89.20;;;;;;5073975;28;20458;-41
2021/10/19 09:29:50;;;;;;;5.60;5.00;;;15.10;89.40;;;;;;5074407;28;20636;-41
2021/10/19 09:32:18;;;;;;;5.67;5.13;;;15.20;89.40;;;;;;5073719;28;20420;-42
2021/10/19 09:34:45;;;;;;;7.87;5.23;;;15.30;89.50;;;;;;5077528;28;20430;-43
2021/10/19 09:37:21;;;;;;;6.47;5.07;;;15.40;89.60;;;;;;5095347;28;20426;-41
2021/10/19 09:39:51;;;;;;;4.83;4.37;;;15.50;90.30;;;;;;5095133;28;20424;-41
2021/10/19 09:42:27;;;;;;;5.67;3.73;;;15.70;91.40;;;;;;5093924;28;20411;-42
2021/10/19 09:44:58;;;;;;;4.60;3.60;;;15.90;91.80;;;;;;5093243;28;20486;-43
2021/10/19 09:47:43;;;;;;;4.03;3.63;;;16.10;91.90;;;;;;5094041;28;20824;-44
2021/10/19 09:50:10;;;;;;;4.30;3.60;;;16.40;91.60;;;;;;5094023;28;20477;-40
2021/10/19 09:52:39;;;;;;;4.60;3.80;;;16.50;91.30;;;;;;5093969;28;20422;-40
2021/10/19 09:55:08;;;;;;;5.20;3.97;;;16.60;91.10;;;;;;5098442;28;20477;-42
2021/10/19 09:57:34;;;;;;;4.20;3.80;;;16.80;90.90;;;;;;5099035;28;20855;-41
2021/10/19 10:00:00;;;;;;;4.10;3.70;;;16.80;90.60;;;;;;5099235;28;20418;-43
2021/10/19 10:02:26;;;;;;;3.80;3.50;;;16.80;90.60;;;;;;5098628;28;20419;-40
2021/10/19 10:04:53;;;;;;;4.00;3.10;;;16.90;90.70;;;;;;5097996;28;20429;-42
2021/10/19 10:07:19;;;;;;;4.00;3.57;;;16.80;90.70;;;;;;5096879;28;20191;-38
2021/10/19 10:09:46;;;;;;;3.93;3.53;;;16.80;90.80;;;;;;5096462;28;20496;-43
2021/10/19 10:12:11;;;;;;;3.77;3.47;;;16.80;90.90;;;;;;5096885;28;20469;-39
2021/10/19 10:14:45;;;;;;;4.00;3.60;;;16.80;90.90;;;;;;5098460;28;20407;-43
2021/10/19 10:17:11;;;;;;;4.30;3.63;;;16.80;91.00;;;;;;5097748;28;20556;-40
2021/10/19 10:19:37;;;;;;;3.53;3.23;;;16.80;91.10;;;;;;5098510;28;20415;-41
2021/10/19 10:22:16;;;;;;;4.83;4.40;;;16.80;91.20;;;;;;5098688;28;20425;-42
2021/10/19 10:24:42;;;;;;;3.70;3.20;;;16.90;91.10;;;;;;5097881;28;20192;-42
2021/10/19 10:27:15;;;;;;;4.07;3.77;;;16.90;91.10;;;;;;5095823;28;20431;-40
2021/10/19 10:29:47;;;;;;;5.00;3.70;;;17.00;91.10;;;;;;5097584;28;20488;-42
2021/10/19 10:32:39;;;;;;;3.90;3.50;;;17.00;91.10;;;;;;5098110;28;20411;-42
2021/10/19 10:35:07;;;;;;;4.07;3.77;;;17.00;91.10;;;;;;5093878;28;20427;-40
2021/10/19 10:37:40;;;;;;;4.40;3.77;;;17.00;91.00;;;;;;5097517;28;20483;-41
2021/10/19 10:40:09;;;;;;;3.93;3.63;;;17.10;90.90;;;;;;5097652;28;20458;-40
2021/10/19 10:42:37;;;;;;;3.60;3.30;;;17.10;90.70;;;;;;5097199;28;20583;-44
2021/10/19 10:45:05;;;;;;;4.30;3.90;;;17.10;90.80;;;;;;5098127;28;20491;-42
2021/10/19 10:47:30;;;;;;;4.40;3.93;;;17.20;90.90;;;;;;5097210;28;20488;-42
2021/10/19 10:49:57;;;;;;;4.73;4.13;;;17.30;90.80;;;;;;5096604;28;20458;-40
2021/10/19 10:52:23;;;;;;;4.13;3.60;;;17.30;90.70;;;;;;5095306;28;20214;-42
2021/10/19 10:54:56;;;;;;;4.03;3.63;;;17.50;90.70;;;;;;5076557;28;20915;-40
2021/10/19 10:57:21;;;;;;;4.10;3.70;;;17.70;90.60;;;;;;5076585;28;20239;-42
2021/10/19 10:59:56;;;;;;;4.33;3.50;;;18.10;90.30;;;;;;5076485;28;20537;-41
2021/10/19 11:02:26;;;;;;;4.13;3.40;;;18.60;89.60;;;;;;5076415;28;20415;-41
2021/10/19 11:04:55;;;;;;;3.93;3.63;;;19.40;88.20;;;;;;5090823;28;20479;-42
2021/10/19 11:07:35;;;;;;;3.50;3.20;;;20.30;85.70;;;;;;5096053;28;20508;-40
2021/10/19 11:10:49;;;;;;;4.20;3.80;;;21.40;83.00;;;;;;5096471;28;20505;-40
2021/10/19 11:13:15;;;;;;;3.43;3.13;;;22.30;79.20;;;;;;5082500;28;20471;-41
2021/10/19 11:15:49;;;;;;;3.50;3.20;;;23.00;76.20;;;;;;5096144;28;20403;-46
2021/10/19 11:18:16;;;;;;;4.00;3.03;;;23.20;73.20;;;;;;5096350;28;20605;-41
2021/10/19 11:20:41;;;;;;;3.67;3.37;;;23.20;72.20;;;;;;5095305;28;20452;-41
2021/10/19 11:23:07;;;;;;;3.80;3.50;;;23.10;71.40;;;;;;5093834;28;20431;-43
2021/10/19 11:25:33;;;;;;;4.90;3.80;;;22.80;70.10;;;;;;5093049;28;20181;-42
2021/10/19 11:27:59;;;;;;;4.10;3.17;;;22.50;68.80;;;;;;5093584;28;20272;-43
2021/10/19 11:30:24;;;;;;;3.57;3.27;;;22.10;67.90;;;;;;5095100;28;20226;-43
2021/10/19 11:32:50;;;;;;;3.50;3.20;;;21.60;67.70;;;;;;5093655;28;20281;-43
2021/10/19 11:35:19;;;;;;;3.87;3.30;;;21.20;67.90;;;;;;5092422;28;20179;-43
2021/10/19 11:37:45;;;;;;;3.33;3.03;;;20.90;67.90;;;;;;5071306;28;20197;-42
2021/10/19 11:40:12;;;;;;;3.60;3.30;;;20.60;68.50;;;;;;5072991;28;20409;-43
2021/10/19 11:42:51;;;;;;;3.43;3.13;;;20.40;69.50;;;;;;5092129;28;20443;-41
2021/10/19 11:45:18;;;;;;;3.27;2.97;;;20.20;70.10;;;;;;5093982;28;20794;-51
2021/10/19 11:47:52;;;;;;;4.10;3.50;;;20.00;70.40;;;;;;5093902;28;20436;-43
2021/10/19 11:50:29;;;;;;;4.00;3.60;;;19.90;70.90;;;;;;5095130;28;20467;-40
2021/10/19 11:52:56;;;;;;;3.63;3.00;;;19.80;71.50;;;;;;5095225;28;20430;-41
2021/10/19 11:55:22;;;;;;;3.20;2.90;;;19.80;71.80;;;;;;5095873;28;20908;-41
2021/10/19 11:57:50;;;;;;;3.20;2.90;;;19.80;72.00;;;;;;5095496;28;20519;-42
2021/10/19 12:00:17;;;;;;;4.60;3.50;;;19.80;72.10;;;;;;5094676;28;20228;-43
2021/10/19 12:02:49;;;;;;;4.27;3.87;;;19.70;71.70;;;;;;5076869;28;20443;-44
2021/10/19 12:05:15;;;;;;;4.07;3.17;;;19.70;72.00;;;;;;5094121;28;20462;-42
2021/10/19 12:07:53;;;;;;;5.57;3.47;;;19.60;72.30;;;;;;5095326;28;21077;-41
2021/10/19 12:10:21;;;;;;;4.00;3.60;;;19.50;72.50;;;;;;5096661;28;20199;-44
2021/10/19 12:12:53;;;;;;;10.20;4.20;;;19.40;72.90;;;;;;5096206;28;20905;-42
2021/10/19 12:15:21;;;;;;;21.23;7.33;;;19.30;73.20;;;;;;5094667;28;20411;-41
2021/10/19 12:18:02;;;;;;;25.23;9.10;;;19.20;73.50;;;;;;5094441;28;20415;-44
2021/10/19 12:20:33;;;;;;;24.23;7.70;;;19.10;73.90;;;;;;5095015;28;20479;-41
2021/10/19 12:23:02;;;;;;;33.50;9.03;;;19.00;74.30;;;;;;5094449;28;20532;-41
2021/10/19 12:25:34;;;;;;;27.93;7.60;;;19.00;74.70;;;;;;5093283;28;20399;-40
2021/10/19 12:28:00;;;;;;;16.73;6.40;;;18.90;75.30;;;;;;5094418;28;20434;-42
2021/10/19 12:30:26;;;;;;;12.33;5.90;;;18.90;75.30;;;;;;5094561;28;20454;-43
2021/10/19 12:32:54;;;;;;;17.13;5.53;;;18.90;75.80;;;;;;5092535;28;20187;-43
2021/10/19 12:35:20;;;;;;;9.23;5.20;;;18.90;76.10;;;;;;5093096;28;20173;-44
2021/10/19 12:37:46;;;;;;;10.00;4.80;;;19.10;76.30;;;;;;5093953;28;20430;-43
2021/10/19 12:40:15;;;;;;;5.43;4.47;;;19.20;76.10;;;;;;5094577;28;20199;-42
2021/10/19 12:42:41;;;;;;;8.93;5.27;;;19.40;75.60;;;;;;5093164;28;20584;-41